Time;durP1;ratioP1;P1;durP2;ratioP2;P2;SDS_P1;SDS_P2;PMS_P1;PMS_P2;Temp;Humidity;BMP_temperature;BMP_pressure;BME280_temperature;BME280_humidity;BME280_pressure;Samples;Min_cycle;Max_cycle;Signal;HPM_P1;HPM_P2
2023/07/21 00:01:08;;;;;;;3.27;2.90;;;26.00;44.90;;;;;;5058333;28;20459;-67
2023/07/21 00:03:34;;;;;;;3.43;3.00;;;26.00;44.90;;;;;;5049730;28;20457;-68
2023/07/21 00:06:01;;;;;;;3.50;3.13;;;26.10;45.00;;;;;;5047114;28;20434;-67
2023/07/21 00:08:29;;;;;;;2.97;2.70;;;26.10;45.00;;;;;;5039921;28;20425;-69
2023/07/21 00:10:58;;;;;;;3.67;2.97;;;26.00;44.90;;;;;;5057712;28;20413;-68
2023/07/21 00:13:24;;;;;;;3.23;2.80;;;26.10;45.00;;;;;;5059563;28;20409;-67
2023/07/21 00:15:50;;;;;;;3.77;3.47;;;26.00;45.00;;;;;;5048385;28;20465;-68
2023/07/21 00:18:16;;;;;;;3.10;2.90;;;26.10;45.00;;;;;;5058832;28;20433;-68
2023/07/21 00:20:42;;;;;;;3.03;2.73;;;26.00;44.90;;;;;;5059229;28;20167;-68
2023/07/21 00:23:07;;;;;;;3.00;2.60;;;26.00;44.90;;;;;;5057991;28;20228;-67
2023/07/21 00:25:33;;;;;;;2.40;2.20;;;26.00;44.90;;;;;;5057405;28;20818;-67
2023/07/21 00:27:59;;;;;;;2.40;2.20;;;26.00;45.00;;;;;;5058872;28;20202;-68
2023/07/21 00:30:25;;;;;;;3.40;3.10;;;26.00;45.00;;;;;;5059166;28;20187;-68
2023/07/21 00:32:50;;;;;;;3.47;3.17;;;26.00;45.00;;;;;;5059286;28;20198;-68
2023/07/21 00:35:16;;;;;;;3.43;2.50;;;26.00;45.00;;;;;;5057757;28;20703;-67
2023/07/21 00:37:42;;;;;;;2.77;2.57;;;26.00;45.00;;;;;;5059055;28;20183;-68
2023/07/21 00:40:09;;;;;;;3.10;2.73;;;26.00;45.00;;;;;;5059213;28;20167;-67
2023/07/21 00:42:36;;;;;;;3.00;2.80;;;26.00;44.90;;;;;;5059825;28;20175;-68
2023/07/21 00:45:01;;;;;;;3.03;2.73;;;26.00;44.90;;;;;;5058698;28;20500;-68
2023/07/21 00:47:29;;;;;;;3.60;3.10;;;26.00;44.90;;;;;;5058614;28;20464;-67
2023/07/21 00:49:56;;;;;;;3.30;3.10;;;26.00;44.90;;;;;;5058058;28;20202;-68
2023/07/21 00:52:26;;;;;;;3.17;2.60;;;26.00;44.90;;;;;;5058866;28;20421;-68
2023/07/21 00:54:52;;;;;;;3.40;2.53;;;26.00;45.00;;;;;;5059240;28;20547;-67
2023/07/21 00:57:20;;;;;;;2.63;2.33;;;26.00;45.00;;;;;;5059280;28;20416;-68
2023/07/21 00:59:46;;;;;;;2.60;2.40;;;26.00;44.90;;;;;;5059190;28;20410;-67
2023/07/21 01:02:12;;;;;;;2.60;2.40;;;26.00;44.90;;;;;;5059099;28;20994;-68
2023/07/21 01:04:39;;;;;;;3.40;3.10;;;26.00;44.90;;;;;;5059768;28;20429;-67
2023/07/21 01:07:11;;;;;;;2.90;2.60;;;26.00;44.90;;;;;;5062337;28;20254;-67
2023/07/21 01:09:38;;;;;;;3.10;2.80;;;26.00;45.00;;;;;;5063373;28;20941;-68
2023/07/21 01:12:06;;;;;;;3.60;3.27;;;26.00;44.90;;;;;;5063050;28;21032;-66
2023/07/21 01:14:33;;;;;;;2.73;2.50;;;26.00;44.90;;;;;;5062536;28;20430;-67
2023/07/21 01:17:02;;;;;;;2.70;2.50;;;26.00;44.90;;;;;;5062496;28;20405;-68
2023/07/21 01:19:31;;;;;;;2.93;2.73;;;26.00;44.90;;;;;;5063163;28;20429;-68
2023/07/21 01:22:31;;;;;;;2.40;2.20;;;26.00;44.90;;;;;;5063562;28;20790;-68
2023/07/21 01:25:13;;;;;;;2.90;2.60;;;26.00;45.00;;;;;;5053888;28;20422;-68
2023/07/21 01:27:46;;;;;;;3.00;2.70;;;25.90;45.00;;;;;;5062938;28;20437;-70
2023/07/21 01:30:14;;;;;;;2.87;2.57;;;25.90;45.10;;;;;;5062049;28;20401;-68
2023/07/21 01:32:41;;;;;;;3.30;3.00;;;25.90;45.20;;;;;;5062640;28;20563;-68
2023/07/21 01:35:09;;;;;;;3.30;3.00;;;25.90;45.10;;;;;;5060399;28;20492;-68
2023/07/21 01:37:40;;;;;;;4.43;2.67;;;25.90;45.20;;;;;;5062402;28;20516;-67
2023/07/21 01:40:08;;;;;;;2.77;2.57;;;25.90;45.30;;;;;;5062504;28;20414;-68
2023/07/21 01:42:34;;;;;;;4.67;2.87;;;25.90;45.20;;;;;;5061453;28;20434;-68
2023/07/21 01:45:02;;;;;;;4.37;3.00;;;25.90;45.30;;;;;;5062197;28;20459;-67
2023/07/21 01:47:31;;;;;;;3.80;2.90;;;25.90;45.30;;;;;;5060312;28;20511;-67
2023/07/21 01:49:57;;;;;;;6.83;3.60;;;25.90;45.40;;;;;;5061656;28;20441;-68
2023/07/21 01:52:23;;;;;;;3.10;2.80;;;25.90;45.40;;;;;;5061885;28;20413;-68
2023/07/21 01:54:55;;;;;;;3.30;3.00;;;25.90;45.40;;;;;;5062109;28;20459;-67
2023/07/21 01:57:26;;;;;;;3.17;2.87;;;25.90;45.40;;;;;;5061727;28;20155;-68
2023/07/21 01:59:54;;;;;;;3.53;3.00;;;25.90;45.50;;;;;;5061409;28;20521;-67
2023/07/21 02:02:20;;;;;;;3.30;2.90;;;25.90;45.50;;;;;;5061893;28;20973;-68
2023/07/21 02:04:50;;;;;;;2.93;2.63;;;25.90;45.50;;;;;;5061945;28;20413;-68
2023/07/21 02:07:16;;;;;;;3.23;2.93;;;25.90;45.50;;;;;;5061526;28;20413;-68
2023/07/21 02:09:42;;;;;;;3.10;2.70;;;25.90;45.50;;;;;;5061875;28;20505;-68
2023/07/21 02:12:11;;;;;;;3.80;2.87;;;25.90;45.50;;;;;;5061915;28;20441;-68
2023/07/21 02:14:36;;;;;;;3.03;2.80;;;25.90;45.50;;;;;;5060005;28;20199;-67
2023/07/21 02:17:02;;;;;;;3.33;2.93;;;25.90;45.50;;;;;;5058748;28;20417;-68
2023/07/21 02:19:28;;;;;;;3.77;2.80;;;25.90;45.50;;;;;;5058409;28;20668;-67
2023/07/21 02:21:53;;;;;;;2.80;2.60;;;25.90;45.50;;;;;;5058069;28;20164;-67
2023/07/21 02:24:20;;;;;;;5.10;2.97;;;25.90;45.50;;;;;;5056634;28;20202;-67
2023/07/21 02:26:45;;;;;;;2.83;2.60;;;25.90;45.50;;;;;;5066738;28;20222;-69
2023/07/21 02:29:11;;;;;;;2.90;2.60;;;25.90;45.50;;;;;;5056866;28;20433;-69
2023/07/21 02:31:37;;;;;;;2.60;2.40;;;25.90;45.50;;;;;;5057859;28;20632;-69
2023/07/21 02:34:05;;;;;;;2.77;2.57;;;25.90;45.50;;;;;;5058104;28;20691;-67
2023/07/21 02:36:30;;;;;;;3.63;2.67;;;25.90;45.50;;;;;;5056594;28;20526;-67
2023/07/21 02:38:56;;;;;;;3.17;2.70;;;25.90;45.50;;;;;;5057735;28;20434;-67
2023/07/21 02:41:22;;;;;;;3.33;3.13;;;25.90;45.50;;;;;;5059737;28;20554;-67
2023/07/21 02:43:47;;;;;;;3.03;2.80;;;25.90;45.50;;;;;;5059989;28;20183;-68
2023/07/21 02:46:14;;;;;;;2.93;2.73;;;26.00;45.60;;;;;;5058049;28;20217;-68
2023/07/21 02:48:40;;;;;;;3.10;2.80;;;25.90;45.60;;;;;;5061130;28;20233;-67
2023/07/21 02:51:05;;;;;;;3.37;3.07;;;25.90;45.50;;;;;;5060823;28;20401;-68
2023/07/21 02:53:31;;;;;;;3.17;2.83;;;25.90;45.50;;;;;;5052965;28;20241;-68
2023/07/21 02:55:59;;;;;;;3.10;2.70;;;25.90;45.60;;;;;;5040254;28;20200;-67
2023/07/21 02:58:26;;;;;;;3.17;2.87;;;25.90;45.60;;;;;;5039234;28;20253;-69
2023/07/21 03:00:56;;;;;;;2.83;2.63;;;25.90;45.60;;;;;;5039408;28;20476;-67
2023/07/21 03:03:25;;;;;;;3.23;2.60;;;26.00;45.70;;;;;;5036739;28;20468;-67
2023/07/21 03:05:51;;;;;;;3.57;3.27;;;25.90;45.60;;;;;;5037865;28;20465;-67
2023/07/21 03:08:19;;;;;;;3.53;2.90;;;25.90;45.70;;;;;;5037552;28;20437;-67
2023/07/21 03:10:45;;;;;;;2.70;2.50;;;25.90;45.70;;;;;;5037643;28;20506;-67
2023/07/21 03:13:12;;;;;;;2.50;2.30;;;25.90;45.70;;;;;;5037630;28;20453;-68
2023/07/21 03:15:38;;;;;;;2.70;2.50;;;26.00;45.70;;;;;;5037607;28;20191;-67
2023/07/21 03:18:04;;;;;;;2.83;2.63;;;26.00;45.80;;;;;;5036115;28;20981;-67
2023/07/21 03:20:30;;;;;;;3.30;3.00;;;25.90;45.70;;;;;;5037748;28;20428;-67
2023/07/21 03:22:56;;;;;;;3.37;3.07;;;25.90;45.60;;;;;;5038510;28;20176;-64
2023/07/21 03:25:21;;;;;;;2.90;2.60;;;25.90;45.70;;;;;;5057229;28;20183;-67
2023/07/21 03:27:47;;;;;;;2.43;2.23;;;25.90;45.70;;;;;;5055473;28;20206;-68
2023/07/21 03:30:14;;;;;;;3.50;3.20;;;25.90;45.70;;;;;;5057968;28;20179;-67
2023/07/21 03:32:40;;;;;;;2.67;2.47;;;25.90;45.60;;;;;;5058095;28;20167;-68
2023/07/21 03:35:06;;;;;;;2.80;2.60;;;25.90;45.60;;;;;;5055611;28;20521;-67
2023/07/21 03:37:34;;;;;;;3.00;2.80;;;25.90;45.60;;;;;;5058160;28;20191;-67
2023/07/21 03:40:07;;;;;;;2.97;2.73;;;25.90;45.60;;;;;;5058379;28;20465;-67
2023/07/21 03:42:36;;;;;;;2.57;2.37;;;25.90;45.60;;;;;;5057918;28;20398;-67
2023/07/21 03:45:06;;;;;;;2.60;2.40;;;25.90;45.70;;;;;;5057732;28;20425;-68
2023/07/21 03:47:33;;;;;;;3.30;3.00;;;25.90;45.70;;;;;;5057950;28;20432;-68
2023/07/21 03:49:59;;;;;;;2.97;2.73;;;25.90;45.70;;;;;;5056983;28;20441;-67
2023/07/21 03:52:25;;;;;;;2.80;2.60;;;25.90;45.60;;;;;;5059007;28;20469;-68
2023/07/21 03:54:50;;;;;;;3.30;3.00;;;25.90;45.70;;;;;;5057723;28;20667;-67
2023/07/21 03:57:16;;;;;;;3.13;2.83;;;25.90;45.70;;;;;;5058538;28;20663;-68
2023/07/21 03:59:42;;;;;;;2.80;2.57;;;25.90;45.70;;;;;;5057765;28;20171;-68
2023/07/21 04:02:08;;;;;;;3.03;2.80;;;25.90;45.70;;;;;;5055967;28;20648;-68
2023/07/21 04:04:34;;;;;;;2.90;2.60;;;25.90;45.70;;;;;;5058096;28;20413;-68
2023/07/21 04:07:01;;;;;;;3.13;2.83;;;25.90;45.70;;;;;;5057091;28;20925;-68
2023/07/21 04:09:28;;;;;;;4.20;2.90;;;25.90;45.70;;;;;;5058394;28;20250;-68
2023/07/21 04:11:53;;;;;;;2.90;2.63;;;25.90;45.70;;;;;;5057583;28;20757;-67
2023/07/21 04:14:19;;;;;;;3.00;2.80;;;25.90;45.70;;;;;;5057846;28;20414;-68
2023/07/21 04:16:45;;;;;;;2.57;2.37;;;25.90;45.70;;;;;;5057668;28;20203;-67
2023/07/21 04:19:11;;;;;;;3.20;2.80;;;25.90;45.70;;;;;;5059146;28;20202;-67
2023/07/21 04:21:37;;;;;;;3.17;2.60;;;25.90;45.70;;;;;;5058804;28;20188;-68
2023/07/21 04:24:03;;;;;;;2.77;2.57;;;25.90;45.60;;;;;;5058908;28;20401;-68
2023/07/21 04:26:28;;;;;;;2.70;2.50;;;25.90;45.60;;;;;;5059032;28;20540;-67
2023/07/21 04:28:54;;;;;;;3.13;2.80;;;25.90;45.60;;;;;;5058795;28;20195;-67
2023/07/21 04:31:22;;;;;;;3.60;3.30;;;25.90;45.60;;;;;;5058954;28;20261;-67
2023/07/21 04:33:48;;;;;;;3.70;2.53;;;25.90;45.70;;;;;;5056395;28;20207;-68
2023/07/21 04:36:14;;;;;;;3.40;3.10;;;25.90;45.70;;;;;;5052359;28;20460;-66
2023/07/21 04:38:40;;;;;;;3.20;2.90;;;25.90;45.70;;;;;;5052264;28;20515;-67
2023/07/21 04:41:06;;;;;;;3.70;2.70;;;25.90;45.60;;;;;;5056966;28;20413;-67
2023/07/21 04:43:31;;;;;;;3.20;2.50;;;25.90;45.60;;;;;;5057395;28;20205;-66
2023/07/21 04:45:57;;;;;;;2.93;2.70;;;25.90;45.70;;;;;;5057606;28;20632;-66
2023/07/21 04:48:22;;;;;;;3.80;2.77;;;25.90;45.70;;;;;;5057212;28;20217;-66
2023/07/21 04:50:52;;;;;;;3.27;2.70;;;25.90;45.80;;;;;;5056033;28;20179;-64
2023/07/21 04:53:17;;;;;;;3.17;2.70;;;25.80;45.70;;;;;;5059114;28;20179;-66
2023/07/21 04:55:43;;;;;;;3.37;3.00;;;25.90;45.80;;;;;;5067748;28;20456;-67
2023/07/21 04:58:08;;;;;;;4.57;2.53;;;25.90;45.80;;;;;;5062004;28;20186;-67
2023/07/21 05:00:34;;;;;;;4.80;2.90;;;25.90;45.80;;;;;;5072091;28;20700;-66
2023/07/21 05:03:00;;;;;;;3.17;2.73;;;25.90;45.80;;;;;;5056482;28;20171;-67
2023/07/21 05:05:30;;;;;;;3.30;3.00;;;25.90;45.80;;;;;;5057133;28;20238;-67
2023/07/21 05:07:55;;;;;;;4.43;2.90;;;25.90;45.90;;;;;;5056709;28;20487;-66
2023/07/21 05:10:21;;;;;;;2.90;2.50;;;25.90;45.90;;;;;;5056416;28;20796;-66
2023/07/21 05:12:47;;;;;;;3.00;2.80;;;25.90;45.90;;;;;;5057256;28;20179;-66
2023/07/21 05:15:13;;;;;;;2.90;2.60;;;25.90;45.90;;;;;;5060002;28;20199;-67
2023/07/21 05:17:39;;;;;;;2.87;2.63;;;25.90;46.20;;;;;;5058278;28;20190;-68
2023/07/21 05:20:07;;;;;;;2.87;2.67;;;25.90;45.90;;;;;;5060003;28;20414;-67
2023/07/21 05:22:33;;;;;;;2.77;2.57;;;25.90;46.00;;;;;;5059953;28;20748;-68
2023/07/21 05:24:59;;;;;;;2.73;2.37;;;25.90;46.00;;;;;;5060590;28;20440;-68
2023/07/21 05:27:24;;;;;;;3.27;2.97;;;25.90;46.00;;;;;;5060067;28;20441;-68
2023/07/21 05:29:50;;;;;;;4.13;2.37;;;25.90;46.00;;;;;;5060018;28;20171;-68
2023/07/21 05:32:16;;;;;;;3.30;2.80;;;25.90;46.00;;;;;;5058505;28;20183;-67
2023/07/21 05:34:42;;;;;;;2.93;2.73;;;25.90;46.00;;;;;;5059527;28;20410;-68
2023/07/21 05:37:12;;;;;;;3.60;2.97;;;25.90;46.00;;;;;;5060068;28;20388;-67
2023/07/21 05:39:39;;;;;;;3.47;2.50;;;25.90;46.00;;;;;;5060037;28;20734;-67
2023/07/21 05:42:05;;;;;;;3.80;2.90;;;25.90;46.00;;;;;;5059837;28;20966;-68
2023/07/21 05:44:33;;;;;;;2.63;2.43;;;25.90;46.10;;;;;;5060652;28;20413;-67
2023/07/21 05:46:59;;;;;;;3.10;2.40;;;25.90;46.10;;;;;;5059494;28;20426;-68
2023/07/21 05:49:25;;;;;;;4.07;3.20;;;25.90;46.00;;;;;;5060122;28;20445;-67
2023/07/21 05:51:51;;;;;;;3.70;3.03;;;25.90;46.00;;;;;;5059205;28;20417;-67
2023/07/21 05:54:17;;;;;;;3.23;2.80;;;25.90;46.10;;;;;;5061279;28;20500;-66
2023/07/21 05:56:43;;;;;;;3.17;2.53;;;26.00;46.10;;;;;;5060896;28;20460;-68
2023/07/21 05:59:09;;;;;;;2.93;2.73;;;26.00;46.30;;;;;;5042908;28;20434;-68
2023/07/21 06:01:36;;;;;;;3.50;3.20;;;25.90;46.20;;;;;;5061083;28;20232;-68
2023/07/21 06:04:03;;;;;;;3.87;3.10;;;25.90;46.20;;;;;;5060040;28;20191;-68
2023/07/21 06:06:29;;;;;;;3.00;2.70;;;25.90;46.30;;;;;;5060009;28;20417;-68
2023/07/21 06:08:55;;;;;;;5.47;2.70;;;25.90;46.20;;;;;;5060083;28;20440;-68
2023/07/21 06:11:22;;;;;;;3.67;3.33;;;25.90;46.30;;;;;;5059499;28;20409;-68
2023/07/21 06:13:48;;;;;;;3.03;2.80;;;25.90;46.40;;;;;;5060324;28;20181;-68
2023/07/21 06:16:13;;;;;;;3.00;2.70;;;25.90;46.30;;;;;;5060102;28;20457;-68
2023/07/21 06:18:39;;;;;;;4.57;2.80;;;25.90;46.40;;;;;;5059071;28;20195;-68
2023/07/21 06:21:04;;;;;;;3.73;3.43;;;25.90;46.40;;;;;;5059954;28;20289;-68
2023/07/21 06:23:30;;;;;;;3.53;3.17;;;25.90;46.40;;;;;;5059491;28;20247;-68
2023/07/21 06:25:56;;;;;;;4.13;3.10;;;25.90;46.40;;;;;;5060415;28;20182;-68
2023/07/21 06:28:21;;;;;;;3.37;3.03;;;26.00;46.50;;;;;;5059911;28;20201;-68
2023/07/21 06:30:48;;;;;;;3.43;2.53;;;26.00;46.50;;;;;;5060184;28;20174;-68
2023/07/21 06:33:13;;;;;;;3.13;2.83;;;26.00;46.50;;;;;;5059969;28;20231;-68
2023/07/21 06:35:39;;;;;;;3.97;3.00;;;26.00;46.60;;;;;;5060551;28;20449;-68
2023/07/21 06:38:07;;;;;;;4.00;3.03;;;26.00;46.60;;;;;;5059953;28;20614;-68
2023/07/21 06:40:33;;;;;;;4.13;3.17;;;25.90;46.50;;;;;;5059890;28;20175;-68
2023/07/21 06:42:58;;;;;;;4.20;3.80;;;25.90;46.50;;;;;;5059656;28;20423;-69
2023/07/21 06:45:24;;;;;;;4.63;3.97;;;25.90;46.60;;;;;;5058524;28;20445;-68
2023/07/21 06:47:50;;;;;;;3.27;2.97;;;26.00;46.60;;;;;;5041714;28;20211;-69
2023/07/21 06:50:16;;;;;;;3.10;2.90;;;26.00;46.60;;;;;;5059584;28;20444;-68
2023/07/21 06:52:42;;;;;;;3.20;2.90;;;25.90;46.60;;;;;;5059347;28;20179;-69
2023/07/21 06:55:08;;;;;;;4.07;2.80;;;26.00;46.70;;;;;;5059756;28;20209;-69
2023/07/21 06:57:33;;;;;;;3.30;3.00;;;26.00;46.70;;;;;;5041372;28;20245;-68
2023/07/21 07:00:00;;;;;;;3.10;2.80;;;26.00;46.80;;;;;;5059821;28;20465;-69
2023/07/21 07:02:26;;;;;;;3.40;3.07;;;26.00;46.70;;;;;;5058884;28;20440;-69
2023/07/21 07:04:53;;;;;;;4.13;2.87;;;26.00;46.70;;;;;;5059740;28;20612;-69
2023/07/21 07:07:19;;;;;;;4.10;3.20;;;26.00;46.60;;;;;;5059472;28;20175;-69
2023/07/21 07:09:45;;;;;;;3.20;2.90;;;26.00;46.50;;;;;;5058562;28;20866;-69
2023/07/21 07:12:10;;;;;;;3.80;2.90;;;26.00;46.60;;;;;;5058880;28;20785;-68
2023/07/21 07:14:36;;;;;;;3.80;3.00;;;26.00;46.40;;;;;;5058902;28;20218;-68
2023/07/21 07:17:02;;;;;;;3.10;2.80;;;26.00;46.40;;;;;;5056693;28;20182;-68
2023/07/21 07:19:28;;;;;;;5.23;2.83;;;25.90;46.30;;;;;;5058442;28;20195;-68
2023/07/21 07:21:53;;;;;;;3.17;2.87;;;26.00;46.30;;;;;;5059105;28;20175;-69
2023/07/21 07:24:20;;;;;;;3.87;3.03;;;25.90;46.20;;;;;;5058144;28;20274;-69
2023/07/21 07:26:46;;;;;;;3.37;2.70;;;25.90;46.30;;;;;;5058221;28;20176;-69
2023/07/21 07:29:12;;;;;;;3.27;2.80;;;25.90;46.30;;;;;;5057710;28;20444;-69
2023/07/21 07:31:38;;;;;;;5.07;2.70;;;25.90;46.30;;;;;;5058439;28;20416;-69
2023/07/21 07:34:04;;;;;;;4.23;3.13;;;25.90;46.40;;;;;;5057989;28;20182;-69
2023/07/21 07:36:30;;;;;;;3.97;2.87;;;25.90;46.50;;;;;;5058400;28;20826;-69
2023/07/21 07:38:55;;;;;;;3.30;2.60;;;25.90;46.50;;;;;;5058086;28;20448;-69
2023/07/21 07:41:21;;;;;;;3.37;3.07;;;25.90;46.50;;;;;;5056984;28;20186;-68
2023/07/21 07:43:47;;;;;;;3.33;3.07;;;25.90;46.50;;;;;;5057773;28;20171;-68
2023/07/21 07:46:12;;;;;;;3.33;3.07;;;25.90;46.60;;;;;;5057199;28;20206;-68
2023/07/21 07:48:38;;;;;;;3.07;2.87;;;25.90;46.70;;;;;;5058326;28;20222;-69
2023/07/21 07:51:06;;;;;;;2.80;2.47;;;25.90;46.60;;;;;;5058189;28;20504;-68
2023/07/21 07:53:32;;;;;;;3.10;2.90;;;25.90;46.60;;;;;;5058285;28;20231;-68
2023/07/21 07:55:58;;;;;;;3.30;2.60;;;25.90;46.60;;;;;;5057809;28;20492;-69
2023/07/21 07:58:24;;;;;;;3.33;2.57;;;25.90;46.60;;;;;;5058248;28;20918;-68
2023/07/21 08:00:54;;;;;;;2.90;2.70;;;25.90;46.60;;;;;;5058815;28;20170;-69
2023/07/21 08:03:20;;;;;;;2.97;2.67;;;25.90;46.60;;;;;;5058285;28;20409;-67
2023/07/21 08:05:47;;;;;;;3.27;2.97;;;25.90;46.70;;;;;;5057657;28;20416;-69
2023/07/21 08:08:14;;;;;;;3.20;2.77;;;25.90;46.70;;;;;;5056801;28;20640;-69
2023/07/21 08:10:41;;;;;;;3.17;2.90;;;25.80;46.60;;;;;;5058783;28;20421;-68
2023/07/21 08:13:08;;;;;;;3.10;2.73;;;25.90;46.70;;;;;;5059670;28;20782;-68
2023/07/21 08:15:34;;;;;;;4.03;2.97;;;25.90;46.70;;;;;;5063204;28;20457;-69
2023/07/21 08:17:59;;;;;;;3.03;2.60;;;25.80;46.70;;;;;;5063159;28;20812;-68
2023/07/21 08:20:25;;;;;;;3.90;2.93;;;25.90;46.70;;;;;;5062529;28;20179;-69
2023/07/21 08:22:51;;;;;;;2.93;2.63;;;25.90;46.70;;;;;;5062351;28;20167;-68
2023/07/21 08:25:18;;;;;;;3.47;2.50;;;25.90;46.70;;;;;;5062979;28;20179;-68
2023/07/21 08:27:43;;;;;;;4.43;3.00;;;25.90;46.70;;;;;;5062467;28;20190;-69
2023/07/21 08:30:09;;;;;;;3.07;2.83;;;25.80;46.70;;;;;;5063035;28;20980;-68
2023/07/21 08:32:43;;;;;;;3.00;2.80;;;25.80;46.70;;;;;;5062527;28;20178;-68
2023/07/21 08:35:09;;;;;;;4.80;2.80;;;25.90;46.70;;;;;;5062615;28;20440;-69
2023/07/21 08:37:35;;;;;;;6.23;2.60;;;25.90;46.80;;;;;;5062454;28;20425;-68
2023/07/21 08:40:00;;;;;;;2.63;2.20;;;25.90;46.80;;;;;;5062844;28;20888;-68
2023/07/21 08:42:27;;;;;;;2.93;2.73;;;25.90;46.80;;;;;;5062234;28;20313;-69
2023/07/21 08:44:54;;;;;;;5.10;3.20;;;25.90;46.80;;;;;;5061888;28;20195;-68
2023/07/21 08:47:20;;;;;;;4.37;3.40;;;25.90;46.80;;;;;;5061323;28;20467;-68
2023/07/21 08:49:47;;;;;;;2.67;2.47;;;25.90;46.80;;;;;;5061989;28;20429;-68
2023/07/21 08:52:13;;;;;;;3.47;3.17;;;25.90;46.70;;;;;;5061551;28;20420;-68
2023/07/21 08:54:38;;;;;;;3.40;3.10;;;25.90;46.80;;;;;;5061170;28;20416;-68
2023/07/21 08:57:04;;;;;;;3.90;2.73;;;25.90;46.80;;;;;;5062689;28;20417;-69
2023/07/21 08:59:30;;;;;;;2.80;2.60;;;25.90;46.80;;;;;;5062448;28;20209;-68
2023/07/21 09:01:55;;;;;;;3.00;2.70;;;25.90;46.80;;;;;;5061319;28;20181;-69
2023/07/21 09:04:23;;;;;;;3.97;3.00;;;25.90;46.80;;;;;;5061463;28;20171;-68
2023/07/21 09:06:53;;;;;;;3.30;3.00;;;25.90;46.70;;;;;;5061961;28;20191;-68
2023/07/21 09:09:20;;;;;;;4.30;2.80;;;25.80;46.70;;;;;;5061424;28;20456;-69
2023/07/21 09:11:46;;;;;;;7.10;3.37;;;25.80;46.70;;;;;;5061870;28;20985;-68
2023/07/21 09:14:12;;;;;;;3.20;2.90;;;25.90;46.80;;;;;;5061482;28;20914;-68
2023/07/21 09:16:41;;;;;;;3.30;3.00;;;25.90;46.70;;;;;;5061393;28;20510;-69
2023/07/21 09:19:07;;;;;;;4.20;3.13;;;25.90;46.80;;;;;;5062035;28;20191;-68
2023/07/21 09:21:35;;;;;;;3.40;3.10;;;25.90;46.90;;;;;;5060059;28;20428;-69
2023/07/21 09:24:06;;;;;;;3.10;2.90;;;25.90;46.90;;;;;;5061621;28;20417;-68
2023/07/21 09:26:32;;;;;;;3.40;3.10;;;25.90;47.00;;;;;;5059727;28;20425;-68
2023/07/21 09:28:58;;;;;;;2.90;2.60;;;25.90;46.90;;;;;;5058900;28;20440;-69
2023/07/21 09:31:33;;;;;;;4.03;3.40;;;25.90;46.90;;;;;;5060602;28;20413;-68
2023/07/21 09:34:06;;;;;;;3.80;3.50;;;25.90;47.00;;;;;;5060831;28;20162;-69
2023/07/21 09:36:32;;;;;;;3.30;3.00;;;25.90;47.00;;;;;;5060541;28;20464;-68
2023/07/21 09:39:02;;;;;;;3.87;2.90;;;25.90;47.60;;;;;;5060362;28;20464;-68
2023/07/21 09:41:32;;;;;;;3.20;2.90;;;25.90;47.00;;;;;;5061035;28;20438;-68
2023/07/21 09:43:58;;;;;;;3.23;2.93;;;25.90;47.00;;;;;;5061113;28;20425;-68
2023/07/21 09:46:24;;;;;;;5.50;3.27;;;25.90;47.00;;;;;;5060159;28;20413;-68
2023/07/21 09:48:49;;;;;;;3.20;2.90;;;25.90;47.00;;;;;;5060487;28;20499;-69
2023/07/21 09:51:18;;;;;;;4.10;3.43;;;25.90;47.10;;;;;;5060121;28;20183;-68
2023/07/21 09:53:44;;;;;;;3.27;2.90;;;25.90;47.10;;;;;;5060374;28;20221;-69
2023/07/21 09:56:11;;;;;;;2.83;2.63;;;25.90;47.00;;;;;;5060245;28;20453;-69
2023/07/21 09:58:57;;;;;;;3.23;2.97;;;25.90;47.10;;;;;;5060183;28;20187;-69
2023/07/21 10:01:23;;;;;;;2.90;2.70;;;25.90;47.10;;;;;;5060285;28;20425;-68
2023/07/21 10:03:50;;;;;;;3.37;3.00;;;25.90;47.00;;;;;;5060416;28;20410;-69
2023/07/21 10:06:16;;;;;;;3.33;3.07;;;25.90;47.10;;;;;;5058947;28;20432;-69
2023/07/21 10:08:42;;;;;;;3.13;2.90;;;25.90;47.10;;;;;;5060001;28;20953;-69
2023/07/21 10:11:08;;;;;;;4.50;3.10;;;25.90;47.10;;;;;;5060307;28;20424;-68
2023/07/21 10:13:46;;;;;;;3.83;3.10;;;25.90;47.10;;;;;;5059922;28;20475;-68
2023/07/21 10:16:13;;;;;;;4.10;3.37;;;25.90;47.20;;;;;;5060207;28;20484;-68
2023/07/21 10:19:03;;;;;;;3.30;3.00;;;25.90;47.10;;;;;;5060432;28;20926;-69
2023/07/21 10:21:47;;;;;;;3.97;3.20;;;25.90;47.20;;;;;;5060112;28;20467;-68
2023/07/21 10:24:28;;;;;;;3.70;3.03;;;25.90;47.20;;;;;;5060006;28;20492;-69
2023/07/21 10:27:07;;;;;;;4.40;3.20;;;25.90;47.20;;;;;;5060453;28;20397;-68
2023/07/21 10:29:33;;;;;;;4.00;3.20;;;25.90;47.20;;;;;;5060420;28;20393;-69
2023/07/21 10:32:03;;;;;;;9.13;3.90;;;25.90;47.20;;;;;;5060261;28;20449;-68
2023/07/21 10:34:34;;;;;;;7.20;3.47;;;25.90;47.30;;;;;;5059835;28;20321;-68
2023/07/21 10:37:04;;;;;;;5.17;3.00;;;25.90;47.20;;;;;;5059173;28;20459;-69
2023/07/21 10:39:44;;;;;;;4.10;3.23;;;25.90;47.20;;;;;;5059838;28;20385;-69
2023/07/21 10:42:11;;;;;;;5.47;3.40;;;25.90;47.20;;;;;;5060043;28;20878;-69
2023/07/21 10:44:41;;;;;;;4.93;3.40;;;25.90;47.20;;;;;;5060193;28;20405;-69
2023/07/21 10:47:18;;;;;;;4.03;3.33;;;25.90;47.20;;;;;;5059162;28;20830;-67
2023/07/21 10:49:45;;;;;;;3.77;3.47;;;25.90;47.20;;;;;;5059137;28;20432;-69
2023/07/21 10:52:11;;;;;;;4.83;4.10;;;25.90;47.20;;;;;;5059125;28;20394;-69
2023/07/21 10:54:37;;;;;;;4.00;3.27;;;25.90;47.10;;;;;;5057482;28;20416;-69
2023/07/21 10:57:03;;;;;;;7.33;3.70;;;25.90;47.20;;;;;;5058820;28;20632;-69
2023/07/21 10:59:33;;;;;;;4.60;3.47;;;25.90;47.20;;;;;;5060985;28;20446;-68
2023/07/21 11:01:59;;;;;;;5.40;4.10;;;26.00;47.40;;;;;;5038738;28;20406;-68
2023/07/21 11:04:24;;;;;;;5.00;3.87;;;26.00;47.40;;;;;;5036854;28;20841;-69
2023/07/21 11:06:57;;;;;;;5.70;3.67;;;26.00;47.20;;;;;;5038229;28;20410;-69
2023/07/21 11:09:24;;;;;;;5.63;3.70;;;26.00;47.20;;;;;;5036894;28;20204;-68
2023/07/21 11:11:52;;;;;;;6.73;3.40;;;25.90;47.20;;;;;;5037364;28;20447;-69
2023/07/21 11:14:25;;;;;;;4.83;4.43;;;25.90;47.20;;;;;;5042906;28;20800;-69
2023/07/21 11:17:03;;;;;;;6.40;4.80;;;26.00;47.20;;;;;;5057255;28;20449;-69
2023/07/21 11:19:31;;;;;;;6.37;5.73;;;26.00;47.20;;;;;;5057780;28;20432;-69
2023/07/21 11:21:57;;;;;;;5.77;5.20;;;26.00;47.30;;;;;;5057389;28;20420;-68
2023/07/21 11:24:28;;;;;;;6.00;5.50;;;26.00;47.20;;;;;;5057297;28;20784;-69
2023/07/21 11:27:02;;;;;;;5.90;5.40;;;26.00;47.10;;;;;;5057584;28;20582;-68
2023/07/21 11:29:32;;;;;;;6.13;5.53;;;26.00;47.10;;;;;;5057202;28;20433;-68
2023/07/21 11:31:57;;;;;;;6.00;5.37;;;25.90;47.10;;;;;;5056673;28;20444;-68
2023/07/21 11:34:28;;;;;;;7.37;6.67;;;25.90;47.20;;;;;;5041169;28;20446;-68
2023/07/21 11:36:56;;;;;;;7.53;6.73;;;26.00;47.20;;;;;;5036645;28;20794;-68
2023/07/21 11:39:22;;;;;;;7.70;6.20;;;26.00;47.20;;;;;;5050931;28;20528;-69
2023/07/21 11:41:55;;;;;;;6.07;5.53;;;26.00;47.20;;;;;;5055828;28;20421;-69
2023/07/21 11:44:20;;;;;;;6.23;5.70;;;26.00;47.10;;;;;;5055421;28;20413;-68
2023/07/21 11:47:13;;;;;;;6.07;5.50;;;25.90;47.00;;;;;;5056362;28;20767;-68
2023/07/21 11:49:39;;;;;;;5.80;5.30;;;26.00;47.10;;;;;;5056135;28;20202;-68
2023/07/21 11:52:07;;;;;;;6.43;5.83;;;26.00;47.10;;;;;;5056586;28;20417;-68
2023/07/21 11:54:40;;;;;;;6.30;5.80;;;26.00;47.10;;;;;;5056556;28;20413;-68
2023/07/21 11:57:07;;;;;;;6.43;5.47;;;26.00;47.00;;;;;;5057104;28;20393;-69
2023/07/21 11:59:33;;;;;;;5.47;4.93;;;26.00;46.90;;;;;;5057305;28;20421;-69
2023/07/21 12:01:58;;;;;;;6.20;5.20;;;26.00;46.90;;;;;;5056936;28;20410;-69
2023/07/21 12:04:24;;;;;;;5.00;4.60;;;26.00;46.90;;;;;;5056287;28;20402;-69
2023/07/21 12:06:51;;;;;;;5.43;5.03;;;26.00;46.80;;;;;;5055851;28;20199;-68
2023/07/21 12:09:19;;;;;;;4.77;4.40;;;26.00;46.80;;;;;;5055496;28;20228;-69
2023/07/21 12:11:45;;;;;;;6.27;4.20;;;26.00;46.80;;;;;;5055642;28;20463;-69
2023/07/21 12:14:11;;;;;;;7.03;4.77;;;26.00;46.80;;;;;;5055478;28;20402;-69
2023/07/21 12:16:36;;;;;;;4.83;4.30;;;26.00;46.80;;;;;;5055748;28;20953;-68
2023/07/21 12:19:03;;;;;;;5.03;4.53;;;26.00;46.80;;;;;;5055758;28;20195;-69
2023/07/21 12:21:30;;;;;;;4.40;4.00;;;26.00;46.70;;;;;;5056059;28;20175;-69
2023/07/21 12:23:56;;;;;;;6.20;3.70;;;26.00;46.60;;;;;;5055747;28;20411;-69
2023/07/21 12:26:22;;;;;;;3.30;3.00;;;26.00;46.30;;;;;;5055516;28;20504;-68
2023/07/21 12:28:48;;;;;;;5.37;3.87;;;26.00;46.20;;;;;;5055621;28;20434;-69
2023/07/21 12:31:15;;;;;;;3.93;3.57;;;26.00;46.10;;;;;;5055673;28;20917;-69
2023/07/21 12:33:41;;;;;;;7.00;3.00;;;26.00;46.20;;;;;;5056278;28;20420;-69
2023/07/21 12:36:07;;;;;;;3.33;3.00;;;26.00;46.10;;;;;;5055700;28;20459;-69
2023/07/21 12:38:33;;;;;;;3.97;3.10;;;26.10;46.10;;;;;;5056005;28;20433;-68
2023/07/21 12:40:59;;;;;;;3.73;3.10;;;26.00;46.00;;;;;;5055788;28;20413;-69
2023/07/21 12:43:24;;;;;;;3.70;3.13;;;26.10;45.90;;;;;;5054652;28;20203;-69
2023/07/21 12:45:50;;;;;;;2.70;2.50;;;26.10;45.90;;;;;;5055376;28;21044;-68
2023/07/21 12:48:16;;;;;;;3.07;2.77;;;26.00;45.90;;;;;;5055242;28;20286;-68